Strona główna
METAR-TAF:

METAR-TAF

Lotnisko :

Port lotniczy Dakar

Dakar, Senegal

Szerokość geograficzna: 14-44N, Długość geograficzna: 017-30W, wysokość: 27 m

Aktualna obserwacja pogody

Raport powstał 1 godzina i 9 minut temu, godzina 06:00 UTC
Wiatr 6 kt od północno-północny zachód
Temperatura 23°C
Wilgotność 83%
Ciśnienie 1013 hPa
Widzialność: 8000 m
Mało chmury na wysokości 1500 ft

METAR: GOOY 200600Z 34006KT 8000 FEW015 23/20 Q1013 NOSIG

czas: 07:09 (07:09 UTC)

Prognoza

Raport powstał 1 godzina i 39 minut temu, godzina 05:30 UTC
Prognoza ważna od 20 godzina 06 UTC do 21 godzina 12 UTC
Wiatr 10 kt od północno-północny zachód
Widzialność 10 km lub więcej
Przerywane chmury na wysokości 1000 ft
Stopniowe zmiany
od 20 godzina 08 UTC do 20 godzina 10 UTC
Rozproszone chmury na wysokości 1200 ft

TAF: GOOY 200530Z 2006/2112 33010KT 9999 BKN010 BECMG 2008/2010 SCT012

Obserwacja i prognoza pogody dla ponad 4000 lotnisk (raport METAR i TAF).

Dostępne stacje oznaczono żółtymi i czerwonymi punktami na mapie.

Najedź kursorem aby zobaczyć nazwę stacji.

Kliknij aby zobaczyć obserwacje i prognozy pogody.

Aby zmienić mapę: kliknij na zielony przycisk z czarnym krzyżykiem, aby powiększyć; na zielony przycisk z myślnikiem, aby pomniejszyć; na zielone strzałki, aby przejść do map sąsiednich.


METAR-TAF: